sensor_id;sensor_type;location;lat;lon;timestamp;P1;durP1;ratioP1;P2;durP2;ratioP2
5245;SDS011;54412;51.206;6.888;2023-09-12T00:01:33;5.73;;;3.13;;
5245;SDS011;54412;51.206;6.888;2023-09-12T00:03:58;9.53;;;3.60;;
5245;SDS011;54412;51.206;6.888;2023-09-12T00:06:24;3.80;;;2.63;;
5245;SDS011;54412;51.206;6.888;2023-09-12T00:08:51;5.93;;;3.40;;
5245;SDS011;54412;51.206;6.888;2023-09-12T00:11:17;4.70;;;3.10;;
5245;SDS011;54412;51.206;6.888;2023-09-12T00:13:44;4.70;;;3.10;;
5245;SDS011;54412;51.206;6.888;2023-09-12T00:16:10;5.50;;;3.40;;
5245;SDS011;54412;51.206;6.888;2023-09-12T00:18:36;6.00;;;3.93;;
5245;SDS011;54412;51.206;6.888;2023-09-12T00:21:03;5.20;;;3.33;;
5245;SDS011;54412;51.206;6.888;2023-09-12T00:23:29;5.90;;;3.80;;
5245;SDS011;54412;51.206;6.888;2023-09-12T00:25:54;4.23;;;2.77;;
5245;SDS011;54412;51.206;6.888;2023-09-12T00:28:22;6.00;;;3.50;;
5245;SDS011;54412;51.206;6.888;2023-09-12T00:30:48;4.23;;;3.83;;
5245;SDS011;54412;51.206;6.888;2023-09-12T00:33:13;5.63;;;3.80;;
5245;SDS011;54412;51.206;6.888;2023-09-12T00:35:39;5.00;;;4.00;;
5245;SDS011;54412;51.206;6.888;2023-09-12T00:38:05;5.83;;;3.40;;
5245;SDS011;54412;51.206;6.888;2023-09-12T00:40:31;8.40;;;4.60;;
5245;SDS011;54412;51.206;6.888;2023-09-12T00:42:58;4.90;;;4.50;;
5245;SDS011;54412;51.206;6.888;2023-09-12T00:45:24;6.30;;;4.20;;
5245;SDS011;54412;51.206;6.888;2023-09-12T00:47:50;3.53;;;3.20;;
5245;SDS011;54412;51.206;6.888;2023-09-12T00:50:18;5.03;;;3.73;;
5245;SDS011;54412;51.206;6.888;2023-09-12T00:52:48;4.60;;;3.70;;
5245;SDS011;54412;51.206;6.888;2023-09-12T00:55:14;4.80;;;3.67;;
5245;SDS011;54412;51.206;6.888;2023-09-12T00:57:40;3.63;;;3.33;;
5245;SDS011;54412;51.206;6.888;2023-09-12T01:00:07;5.83;;;3.57;;
5245;SDS011;54412;51.206;6.888;2023-09-12T01:02:41;4.20;;;3.80;;
5245;SDS011;54412;51.206;6.888;2023-09-12T01:05:11;4.87;;;3.60;;
5245;SDS011;54412;51.206;6.888;2023-09-12T01:07:39;14.20;;;4.00;;
5245;SDS011;54412;51.206;6.888;2023-09-12T01:10:07;5.50;;;3.90;;
5245;SDS011;54412;51.206;6.888;2023-09-12T01:12:34;5.63;;;4.13;;
5245;SDS011;54412;51.206;6.888;2023-09-12T01:15:00;4.77;;;4.27;;
5245;SDS011;54412;51.206;6.888;2023-09-12T01:17:27;5.53;;;3.87;;
5245;SDS011;54412;51.206;6.888;2023-09-12T01:19:53;5.27;;;4.60;;
5245;SDS011;54412;51.206;6.888;2023-09-12T01:28:44;4.90;;;4.40;;
5245;SDS011;54412;51.206;6.888;2023-09-12T01:31:11;6.37;;;5.30;;
5245;SDS011;54412;51.206;6.888;2023-09-12T01:33:40;9.50;;;5.83;;
5245;SDS011;54412;51.206;6.888;2023-09-12T01:36:05;6.80;;;4.97;;
5245;SDS011;54412;51.206;6.888;2023-09-12T01:38:31;8.87;;;5.73;;
5245;SDS011;54412;51.206;6.888;2023-09-12T01:40:57;7.23;;;5.93;;
5245;SDS011;54412;51.206;6.888;2023-09-12T01:43:24;7.90;;;4.70;;
5245;SDS011;54412;51.206;6.888;2023-09-12T01:45:55;6.40;;;5.77;;
5245;SDS011;54412;51.206;6.888;2023-09-12T01:48:30;16.93;;;6.03;;
5245;SDS011;54412;51.206;6.888;2023-09-12T01:51:00;9.00;;;6.40;;
5245;SDS011;54412;51.206;6.888;2023-09-12T01:53:27;10.07;;;7.13;;
5245;SDS011;54412;51.206;6.888;2023-09-12T01:55:55;9.13;;;7.40;;
5245;SDS011;54412;51.206;6.888;2023-09-12T01:58:24;9.50;;;6.67;;
5245;SDS011;54412;51.206;6.888;2023-09-12T02:00:50;13.07;;;8.60;;
5245;SDS011;54412;51.206;6.888;2023-09-12T02:03:16;12.50;;;8.37;;
5245;SDS011;54412;51.206;6.888;2023-09-12T02:05:42;10.43;;;7.93;;
5245;SDS011;54412;51.206;6.888;2023-09-12T02:08:08;9.10;;;7.70;;
5245;SDS011;54412;51.206;6.888;2023-09-12T02:10:33;10.33;;;8.83;;
5245;SDS011;54412;51.206;6.888;2023-09-12T02:12:59;12.33;;;8.93;;
5245;SDS011;54412;51.206;6.888;2023-09-12T02:15:25;10.07;;;7.93;;
5245;SDS011;54412;51.206;6.888;2023-09-12T02:17:51;11.47;;;8.80;;
5245;SDS011;54412;51.206;6.888;2023-09-12T02:20:17;11.37;;;9.20;;
5245;SDS011;54412;51.206;6.888;2023-09-12T02:22:44;12.23;;;9.87;;
5245;SDS011;54412;51.206;6.888;2023-09-12T02:25:10;13.30;;;10.10;;
5245;SDS011;54412;51.206;6.888;2023-09-12T02:27:35;17.87;;;10.60;;
5245;SDS011;54412;51.206;6.888;2023-09-12T02:30:02;12.23;;;10.87;;
5245;SDS011;54412;51.206;6.888;2023-09-12T02:32:28;31.53;;;11.87;;
5245;SDS011;54412;51.206;6.888;2023-09-12T02:34:55;16.73;;;12.57;;
5245;SDS011;54412;51.206;6.888;2023-09-12T02:37:22;15.63;;;12.63;;
5245;SDS011;54412;51.206;6.888;2023-09-12T02:39:48;21.83;;;13.17;;
5245;SDS011;54412;51.206;6.888;2023-09-12T02:42:13;15.67;;;11.33;;
5245;SDS011;54412;51.206;6.888;2023-09-12T02:44:39;19.83;;;12.17;;
5245;SDS011;54412;51.206;6.888;2023-09-12T02:47:05;18.33;;;13.57;;
5245;SDS011;54412;51.206;6.888;2023-09-12T02:49:30;16.83;;;11.67;;
5245;SDS011;54412;51.206;6.888;2023-09-12T02:51:56;17.53;;;11.80;;
5245;SDS011;54412;51.206;6.888;2023-09-12T02:54:22;19.30;;;12.60;;
5245;SDS011;54412;51.206;6.888;2023-09-12T02:56:48;16.73;;;12.60;;
5245;SDS011;54412;51.206;6.888;2023-09-12T02:59:13;17.40;;;12.20;;
5245;SDS011;54412;51.206;6.888;2023-09-12T03:01:39;20.47;;;12.43;;
5245;SDS011;54412;51.206;6.888;2023-09-12T03:04:05;19.27;;;12.30;;
5245;SDS011;54412;51.206;6.888;2023-09-12T03:06:30;17.73;;;10.50;;
5245;SDS011;54412;51.206;6.888;2023-09-12T03:08:56;14.33;;;10.10;;
5245;SDS011;54412;51.206;6.888;2023-09-12T03:11:22;16.53;;;10.00;;
5245;SDS011;54412;51.206;6.888;2023-09-12T03:13:47;13.73;;;9.37;;
5245;SDS011;54412;51.206;6.888;2023-09-12T03:16:14;14.53;;;10.07;;
5245;SDS011;54412;51.206;6.888;2023-09-12T03:18:40;14.00;;;10.70;;
5245;SDS011;54412;51.206;6.888;2023-09-12T03:21:06;13.47;;;9.20;;
5245;SDS011;54412;51.206;6.888;2023-09-12T03:23:32;9.53;;;8.43;;
5245;SDS011;54412;51.206;6.888;2023-09-12T03:26:04;10.17;;;8.90;;
5245;SDS011;54412;51.206;6.888;2023-09-12T03:28:31;13.07;;;8.60;;
5245;SDS011;54412;51.206;6.888;2023-09-12T03:31:05;10.97;;;8.80;;
5245;SDS011;54412;51.206;6.888;2023-09-12T03:33:41;10.47;;;8.40;;
5245;SDS011;54412;51.206;6.888;2023-09-12T03:36:12;8.80;;;7.90;;
5245;SDS011;54412;51.206;6.888;2023-09-12T03:38:38;12.07;;;7.73;;
5245;SDS011;54412;51.206;6.888;2023-09-12T03:41:04;13.87;;;7.17;;
5245;SDS011;54412;51.206;6.888;2023-09-12T03:43:30;10.40;;;7.80;;
5245;SDS011;54412;51.206;6.888;2023-09-12T03:45:57;8.80;;;7.73;;
5245;SDS011;54412;51.206;6.888;2023-09-12T03:48:23;14.30;;;9.40;;
5245;SDS011;54412;51.206;6.888;2023-09-12T03:50:49;13.60;;;8.60;;
5245;SDS011;54412;51.206;6.888;2023-09-12T03:53:15;9.97;;;7.77;;
5245;SDS011;54412;51.206;6.888;2023-09-12T03:55:41;10.50;;;8.53;;
5245;SDS011;54412;51.206;6.888;2023-09-12T03:58:07;9.90;;;8.70;;
5245;SDS011;54412;51.206;6.888;2023-09-12T04:00:33;10.60;;;8.43;;
5245;SDS011;54412;51.206;6.888;2023-09-12T04:02:59;11.13;;;7.83;;
5245;SDS011;54412;51.206;6.888;2023-09-12T04:05:25;8.80;;;7.90;;
5245;SDS011;54412;51.206;6.888;2023-09-12T04:07:51;8.93;;;8.03;;
5245;SDS011;54412;51.206;6.888;2023-09-12T04:10:17;10.40;;;7.33;;
5245;SDS011;54412;51.206;6.888;2023-09-12T04:12:45;8.90;;;6.77;;
5245;SDS011;54412;51.206;6.888;2023-09-12T04:15:11;10.53;;;7.47;;
5245;SDS011;54412;51.206;6.888;2023-09-12T04:17:36;10.00;;;8.23;;
5245;SDS011;54412;51.206;6.888;2023-09-12T04:20:02;10.00;;;7.20;;
5245;SDS011;54412;51.206;6.888;2023-09-12T04:22:29;13.03;;;8.17;;
5245;SDS011;54412;51.206;6.888;2023-09-12T04:24:55;10.40;;;7.10;;
5245;SDS011;54412;51.206;6.888;2023-09-12T04:27:21;8.10;;;7.30;;
5245;SDS011;54412;51.206;6.888;2023-09-12T04:29:47;8.70;;;7.17;;
5245;SDS011;54412;51.206;6.888;2023-09-12T04:32:12;9.43;;;7.27;;
5245;SDS011;54412;51.206;6.888;2023-09-12T04:34:38;8.40;;;7.23;;
5245;SDS011;54412;51.206;6.888;2023-09-12T04:37:07;9.23;;;7.20;;
5245;SDS011;54412;51.206;6.888;2023-09-12T04:39:32;9.53;;;7.23;;
5245;SDS011;54412;51.206;6.888;2023-09-12T04:41:58;13.37;;;6.70;;
5245;SDS011;54412;51.206;6.888;2023-09-12T04:44:24;8.87;;;7.10;;
5245;SDS011;54412;51.206;6.888;2023-09-12T04:46:49;11.47;;;6.87;;
5245;SDS011;54412;51.206;6.888;2023-09-12T04:49:15;12.40;;;6.50;;
5245;SDS011;54412;51.206;6.888;2023-09-12T04:51:41;8.70;;;6.43;;
5245;SDS011;54412;51.206;6.888;2023-09-12T04:54:07;8.27;;;6.57;;
5245;SDS011;54412;51.206;6.888;2023-09-12T04:56:33;6.97;;;5.47;;
5245;SDS011;54412;51.206;6.888;2023-09-12T04:58:59;9.53;;;5.93;;
5245;SDS011;54412;51.206;6.888;2023-09-12T05:01:25;10.43;;;7.10;;
5245;SDS011;54412;51.206;6.888;2023-09-12T05:03:51;9.97;;;6.60;;
5245;SDS011;54412;51.206;6.888;2023-09-12T05:06:17;9.67;;;6.20;;
5245;SDS011;54412;51.206;6.888;2023-09-12T05:08:42;8.13;;;6.37;;
5245;SDS011;54412;51.206;6.888;2023-09-12T05:11:08;9.00;;;6.03;;
5245;SDS011;54412;51.206;6.888;2023-09-12T05:13:34;11.33;;;6.47;;
5245;SDS011;54412;51.206;6.888;2023-09-12T05:16:00;8.83;;;6.60;;
5245;SDS011;54412;51.206;6.888;2023-09-12T05:18:25;11.50;;;6.97;;
5245;SDS011;54412;51.206;6.888;2023-09-12T05:20:51;10.00;;;7.53;;
5245;SDS011;54412;51.206;6.888;2023-09-12T05:23:17;7.33;;;6.30;;
5245;SDS011;54412;51.206;6.888;2023-09-12T05:25:42;12.67;;;6.60;;
5245;SDS011;54412;51.206;6.888;2023-09-12T05:28:08;12.20;;;7.27;;
5245;SDS011;54412;51.206;6.888;2023-09-12T05:30:34;9.07;;;7.20;;
5245;SDS011;54412;51.206;6.888;2023-09-12T05:32:59;10.37;;;7.20;;
5245;SDS011;54412;51.206;6.888;2023-09-12T05:35:26;8.40;;;6.87;;
5245;SDS011;54412;51.206;6.888;2023-09-12T05:37:52;10.60;;;7.57;;
5245;SDS011;54412;51.206;6.888;2023-09-12T05:40:18;8.27;;;6.97;;
5245;SDS011;54412;51.206;6.888;2023-09-12T05:42:45;7.83;;;6.83;;
5245;SDS011;54412;51.206;6.888;2023-09-12T05:45:11;11.80;;;7.20;;
5245;SDS011;54412;51.206;6.888;2023-09-12T05:47:37;8.87;;;6.13;;
5245;SDS011;54412;51.206;6.888;2023-09-12T05:50:02;8.20;;;6.40;;
5245;SDS011;54412;51.206;6.888;2023-09-12T05:52:31;7.77;;;6.93;;
5245;SDS011;54412;51.206;6.888;2023-09-12T05:54:58;9.20;;;7.60;;
5245;SDS011;54412;51.206;6.888;2023-09-12T05:57:24;10.60;;;7.10;;
5245;SDS011;54412;51.206;6.888;2023-09-12T05:59:49;10.37;;;8.00;;
5245;SDS011;54412;51.206;6.888;2023-09-12T06:02:15;17.03;;;14.20;;
5245;SDS011;54412;51.206;6.888;2023-09-12T06:04:42;24.70;;;17.60;;
5245;SDS011;54412;51.206;6.888;2023-09-12T06:07:09;26.37;;;16.30;;
5245;SDS011;54412;51.206;6.888;2023-09-12T06:09:35;26.20;;;15.77;;
5245;SDS011;54412;51.206;6.888;2023-09-12T06:12:01;21.73;;;13.90;;
5245;SDS011;54412;51.206;6.888;2023-09-12T06:14:27;14.40;;;12.20;;
5245;SDS011;54412;51.206;6.888;2023-09-12T06:16:53;16.47;;;12.13;;
5245;SDS011;54412;51.206;6.888;2023-09-12T06:19:19;14.03;;;11.83;;
5245;SDS011;54412;51.206;6.888;2023-09-12T06:21:45;18.13;;;12.43;;
5245;SDS011;54412;51.206;6.888;2023-09-12T06:24:15;21.83;;;12.70;;
5245;SDS011;54412;51.206;6.888;2023-09-12T06:26:49;15.70;;;11.60;;
5245;SDS011;54412;51.206;6.888;2023-09-12T06:29:15;15.23;;;10.53;;
5245;SDS011;54412;51.206;6.888;2023-09-12T06:31:41;11.83;;;10.70;;
5245;SDS011;54412;51.206;6.888;2023-09-12T06:34:07;14.90;;;10.87;;
5245;SDS011;54412;51.206;6.888;2023-09-12T06:36:33;9.73;;;8.80;;
5245;SDS011;54412;51.206;6.888;2023-09-12T06:38:59;9.70;;;8.70;;
5245;SDS011;54412;51.206;6.888;2023-09-12T06:41:26;12.27;;;9.20;;
5245;SDS011;54412;51.206;6.888;2023-09-12T06:43:52;11.90;;;9.43;;
5245;SDS011;54412;51.206;6.888;2023-09-12T06:46:19;10.30;;;8.93;;
5245;SDS011;54412;51.206;6.888;2023-09-12T06:48:47;12.20;;;8.40;;
5245;SDS011;54412;51.206;6.888;2023-09-12T06:51:15;9.63;;;8.27;;
5245;SDS011;54412;51.206;6.888;2023-09-12T06:53:42;10.67;;;8.30;;
5245;SDS011;54412;51.206;6.888;2023-09-12T06:56:08;11.57;;;8.10;;
5245;SDS011;54412;51.206;6.888;2023-09-12T06:58:34;10.23;;;7.70;;
5245;SDS011;54412;51.206;6.888;2023-09-12T07:01:03;9.60;;;8.60;;
5245;SDS011;54412;51.206;6.888;2023-09-12T07:03:32;10.57;;;9.27;;
5245;SDS011;54412;51.206;6.888;2023-09-12T07:06:00;10.20;;;8.30;;
5245;SDS011;54412;51.206;6.888;2023-09-12T07:08:28;9.30;;;7.60;;
5245;SDS011;54412;51.206;6.888;2023-09-12T07:10:55;9.50;;;6.90;;
5245;SDS011;54412;51.206;6.888;2023-09-12T07:13:22;19.67;;;7.23;;
5245;SDS011;54412;51.206;6.888;2023-09-12T07:15:49;13.27;;;6.90;;
5245;SDS011;54412;51.206;6.888;2023-09-12T07:18:16;7.13;;;6.50;;
5245;SDS011;54412;51.206;6.888;2023-09-12T07:20:42;5.83;;;5.23;;
5245;SDS011;54412;51.206;6.888;2023-09-12T07:23:08;6.37;;;4.90;;
5245;SDS011;54412;51.206;6.888;2023-09-12T07:25:40;6.30;;;5.03;;
5245;SDS011;54412;51.206;6.888;2023-09-12T07:28:07;5.93;;;4.90;;
5245;SDS011;54412;51.206;6.888;2023-09-12T07:30:33;6.23;;;4.93;;
5245;SDS011;54412;51.206;6.888;2023-09-12T07:32:59;9.13;;;4.40;;
5245;SDS011;54412;51.206;6.888;2023-09-12T07:35:25;4.40;;;4.00;;
5245;SDS011;54412;51.206;6.888;2023-09-12T07:37:51;5.17;;;3.83;;
5245;SDS011;54412;51.206;6.888;2023-09-12T07:40:16;3.27;;;3.03;;
5245;SDS011;54412;51.206;6.888;2023-09-12T07:42:42;4.43;;;3.20;;
5245;SDS011;54412;51.206;6.888;2023-09-12T07:45:08;4.80;;;3.80;;
5245;SDS011;54412;51.206;6.888;2023-09-12T07:47:34;3.50;;;3.20;;
5245;SDS011;54412;51.206;6.888;2023-09-12T07:50:00;5.90;;;3.33;;
5245;SDS011;54412;51.206;6.888;2023-09-12T07:52:26;5.57;;;3.10;;
5245;SDS011;54412;51.206;6.888;2023-09-12T07:54:58;3.50;;;3.20;;
5245;SDS011;54412;51.206;6.888;2023-09-12T07:57:25;4.00;;;3.50;;
5245;SDS011;54412;51.206;6.888;2023-09-12T07:59:51;4.03;;;3.03;;
5245;SDS011;54412;51.206;6.888;2023-09-12T08:02:16;9.30;;;3.00;;
5245;SDS011;54412;51.206;6.888;2023-09-12T08:04:42;5.97;;;3.83;;
5245;SDS011;54412;51.206;6.888;2023-09-12T08:07:08;5.10;;;3.37;;
5245;SDS011;54412;51.206;6.888;2023-09-12T08:09:52;5.50;;;3.87;;
5245;SDS011;54412;51.206;6.888;2023-09-12T08:12:22;5.33;;;3.37;;
5245;SDS011;54412;51.206;6.888;2023-09-12T08:14:50;3.97;;;3.67;;
5245;SDS011;54412;51.206;6.888;2023-09-12T08:17:16;3.67;;;3.37;;
5245;SDS011;54412;51.206;6.888;2023-09-12T08:19:43;3.80;;;3.50;;
5245;SDS011;54412;51.206;6.888;2023-09-12T08:22:09;3.80;;;3.43;;
5245;SDS011;54412;51.206;6.888;2023-09-12T08:24:36;3.77;;;3.50;;
5245;SDS011;54412;51.206;6.888;2023-09-12T08:27:02;3.50;;;3.30;;
5245;SDS011;54412;51.206;6.888;2023-09-12T08:29:28;5.33;;;3.80;;
5245;SDS011;54412;51.206;6.888;2023-09-12T08:31:56;4.90;;;3.30;;
5245;SDS011;54412;51.206;6.888;2023-09-12T08:34:21;4.50;;;3.83;;
5245;SDS011;54412;51.206;6.888;2023-09-12T08:36:47;4.77;;;4.20;;
5245;SDS011;54412;51.206;6.888;2023-09-12T08:39:23;5.37;;;4.30;;
5245;SDS011;54412;51.206;6.888;2023-09-12T08:41:51;4.03;;;3.73;;
5245;SDS011;54412;51.206;6.888;2023-09-12T08:44:18;5.40;;;3.80;;
5245;SDS011;54412;51.206;6.888;2023-09-12T08:46:46;4.37;;;4.07;;
5245;SDS011;54412;51.206;6.888;2023-09-12T08:49:13;4.67;;;4.27;;
5245;SDS011;54412;51.206;6.888;2023-09-12T08:51:40;4.47;;;4.10;;
5245;SDS011;54412;51.206;6.888;2023-09-12T08:54:06;5.70;;;4.50;;
5245;SDS011;54412;51.206;6.888;2023-09-12T08:56:33;4.83;;;4.43;;
5245;SDS011;54412;51.206;6.888;2023-09-12T08:59:04;4.27;;;3.87;;
5245;SDS011;54412;51.206;6.888;2023-09-12T09:01:31;5.40;;;4.10;;
5245;SDS011;54412;51.206;6.888;2023-09-12T09:03:59;6.07;;;3.93;;
5245;SDS011;54412;51.206;6.888;2023-09-12T09:06:31;5.50;;;3.80;;
5245;SDS011;54412;51.206;6.888;2023-09-12T09:09:02;4.70;;;4.27;;
5245;SDS011;54412;51.206;6.888;2023-09-12T09:11:30;6.27;;;3.27;;
5245;SDS011;54412;51.206;6.888;2023-09-12T09:13:56;4.37;;;3.57;;
5245;SDS011;54412;51.206;6.888;2023-09-12T09:16:22;4.17;;;3.87;;
5245;SDS011;54412;51.206;6.888;2023-09-12T09:19:04;3.90;;;3.43;;
5245;SDS011;54412;51.206;6.888;2023-09-12T09:21:34;4.93;;;3.43;;
5245;SDS011;54412;51.206;6.888;2023-09-12T09:24:12;3.80;;;3.50;;
5245;SDS011;54412;51.206;6.888;2023-09-12T09:26:49;4.90;;;3.40;;
5245;SDS011;54412;51.206;6.888;2023-09-12T09:29:18;3.90;;;3.37;;
5245;SDS011;54412;51.206;6.888;2023-09-12T09:31:46;3.40;;;3.20;;
5245;SDS011;54412;51.206;6.888;2023-09-12T09:34:15;3.47;;;3.17;;
5245;SDS011;54412;51.206;6.888;2023-09-12T09:36:52;4.30;;;2.77;;
5245;SDS011;54412;51.206;6.888;2023-09-12T09:39:21;6.07;;;3.30;;
5245;SDS011;54412;51.206;6.888;2023-09-12T09:41:51;4.50;;;2.70;;
5245;SDS011;54412;51.206;6.888;2023-09-12T09:44:18;6.00;;;2.77;;
5245;SDS011;54412;51.206;6.888;2023-09-12T09:46:52;3.40;;;3.10;;
5245;SDS011;54412;51.206;6.888;2023-09-12T09:49:23;3.40;;;3.20;;
5245;SDS011;54412;51.206;6.888;2023-09-12T09:51:48;2.50;;;2.37;;
5245;SDS011;54412;51.206;6.888;2023-09-12T09:54:14;2.63;;;2.43;;
5245;SDS011;54412;51.206;6.888;2023-09-12T09:56:47;3.30;;;3.00;;
5245;SDS011;54412;51.206;6.888;2023-09-12T09:59:18;4.33;;;2.30;;
5245;SDS011;54412;51.206;6.888;2023-09-12T10:01:48;2.73;;;2.53;;
5245;SDS011;54412;51.206;6.888;2023-09-12T10:04:16;2.27;;;2.10;;
5245;SDS011;54412;51.206;6.888;2023-09-12T10:06:44;3.80;;;2.47;;
5245;SDS011;54412;51.206;6.888;2023-09-12T10:09:12;4.10;;;2.47;;
5245;SDS011;54412;51.206;6.888;2023-09-12T10:11:39;2.30;;;2.10;;
5245;SDS011;54412;51.206;6.888;2023-09-12T10:14:08;1.83;;;1.73;;
5245;SDS011;54412;51.206;6.888;2023-09-12T10:16:57;2.50;;;1.70;;
5245;SDS011;54412;51.206;6.888;2023-09-12T10:19:26;4.10;;;2.50;;
5245;SDS011;54412;51.206;6.888;2023-09-12T10:25:04;1.93;;;1.80;;
5245;SDS011;54412;51.206;6.888;2023-09-12T10:27:32;1.80;;;1.70;;
5245;SDS011;54412;51.206;6.888;2023-09-12T10:29:59;2.40;;;2.13;;
5245;SDS011;54412;51.206;6.888;2023-09-12T10:32:27;2.83;;;1.60;;
5245;SDS011;54412;51.206;6.888;2023-09-12T10:34:56;2.53;;;2.27;;
5245;SDS011;54412;51.206;6.888;2023-09-12T10:37:25;3.23;;;1.90;;
5245;SDS011;54412;51.206;6.888;2023-09-12T10:39:54;1.83;;;1.73;;
5245;SDS011;54412;51.206;6.888;2023-09-12T10:42:23;1.63;;;1.53;;
5245;SDS011;54412;51.206;6.888;2023-09-12T10:44:52;2.07;;;1.90;;
5245;SDS011;54412;51.206;6.888;2023-09-12T10:47:21;3.13;;;2.03;;
5245;SDS011;54412;51.206;6.888;2023-09-12T10:49:48;4.73;;;1.83;;
5245;SDS011;54412;51.206;6.888;2023-09-12T10:52:27;2.17;;;2.07;;
5245;SDS011;54412;51.206;6.888;2023-09-12T10:54:54;3.13;;;2.77;;
5245;SDS011;54412;51.206;6.888;2023-09-12T10:57:20;5.80;;;2.43;;
5245;SDS011;54412;51.206;6.888;2023-09-12T11:02:28;2.90;;;2.60;;
5245;SDS011;54412;51.206;6.888;2023-09-12T11:04:59;2.30;;;2.10;;
5245;SDS011;54412;51.206;6.888;2023-09-12T11:07:33;5.07;;;2.90;;
5245;SDS011;54412;51.206;6.888;2023-09-12T11:12:54;4.17;;;2.20;;
5245;SDS011;54412;51.206;6.888;2023-09-12T11:15:23;3.37;;;2.10;;
5245;SDS011;54412;51.206;6.888;2023-09-12T11:18:12;2.93;;;2.20;;
5245;SDS011;54412;51.206;6.888;2023-09-12T11:21:10;1.80;;;1.67;;
5245;SDS011;54412;51.206;6.888;2023-09-12T11:23:28;1.87;;;1.77;;
5245;SDS011;54412;51.206;6.888;2023-09-12T11:26:06;1.50;;;1.50;;
5245;SDS011;54412;51.206;6.888;2023-09-12T11:28:33;1.63;;;1.53;;
5245;SDS011;54412;51.206;6.888;2023-09-12T11:30:59;2.30;;;1.40;;
5245;SDS011;54412;51.206;6.888;2023-09-12T11:33:25;1.67;;;1.60;;
5245;SDS011;54412;51.206;6.888;2023-09-12T11:35:54;1.20;;;1.20;;
5245;SDS011;54412;51.206;6.888;2023-09-12T11:38:26;2.93;;;2.07;;
5245;SDS011;54412;51.206;6.888;2023-09-12T11:40:54;2.10;;;1.90;;
5245;SDS011;54412;51.206;6.888;2023-09-12T11:43:24;2.60;;;1.80;;
5245;SDS011;54412;51.206;6.888;2023-09-12T11:45:52;2.80;;;1.90;;
5245;SDS011;54412;51.206;6.888;2023-09-12T11:48:20;1.80;;;1.70;;
5245;SDS011;54412;51.206;6.888;2023-09-12T11:50:49;2.20;;;2.10;;
5245;SDS011;54412;51.206;6.888;2023-09-12T11:53:24;2.13;;;1.90;;
5245;SDS011;54412;51.206;6.888;2023-09-12T11:55:56;2.73;;;1.90;;
5245;SDS011;54412;51.206;6.888;2023-09-12T11:58:23;2.37;;;2.20;;
5245;SDS011;54412;51.206;6.888;2023-09-12T12:00:56;2.10;;;2.00;;
5245;SDS011;54412;51.206;6.888;2023-09-12T12:03:24;2.13;;;1.83;;
5245;SDS011;54412;51.206;6.888;2023-09-12T12:05:52;2.43;;;2.27;;
5245;SDS011;54412;51.206;6.888;2023-09-12T12:08:20;2.83;;;2.63;;
5245;SDS011;54412;51.206;6.888;2023-09-12T12:10:52;2.50;;;2.03;;
5245;SDS011;54412;51.206;6.888;2023-09-12T12:13:19;2.67;;;2.40;;
5245;SDS011;54412;51.206;6.888;2023-09-12T12:15:46;2.77;;;2.57;;
5245;SDS011;54412;51.206;6.888;2023-09-12T12:18:12;5.80;;;2.80;;
5245;SDS011;54412;51.206;6.888;2023-09-12T12:20:38;2.67;;;2.47;;
5245;SDS011;54412;51.206;6.888;2023-09-12T12:23:04;2.57;;;2.40;;
5245;SDS011;54412;51.206;6.888;2023-09-12T12:25:34;2.53;;;2.23;;
5245;SDS011;54412;51.206;6.888;2023-09-12T12:28:01;2.60;;;2.40;;
5245;SDS011;54412;51.206;6.888;2023-09-12T12:30:31;4.13;;;2.67;;
5245;SDS011;54412;51.206;6.888;2023-09-12T12:33:00;4.07;;;2.30;;
5245;SDS011;54412;51.206;6.888;2023-09-12T12:35:31;3.57;;;2.90;;
5245;SDS011;54412;51.206;6.888;2023-09-12T12:37:56;3.13;;;2.83;;
5245;SDS011;54412;51.206;6.888;2023-09-12T12:40:22;4.30;;;3.17;;
5245;SDS011;54412;51.206;6.888;2023-09-12T12:42:48;6.83;;;2.30;;
5245;SDS011;54412;51.206;6.888;2023-09-12T12:45:18;4.07;;;2.40;;
5245;SDS011;54412;51.206;6.888;2023-09-12T12:47:46;3.37;;;3.10;;
5245;SDS011;54412;51.206;6.888;2023-09-12T12:50:16;5.30;;;2.93;;
5245;SDS011;54412;51.206;6.888;2023-09-12T12:52:46;9.13;;;3.07;;
5245;SDS011;54412;51.206;6.888;2023-09-12T12:55:14;5.40;;;2.80;;
5245;SDS011;54412;51.206;6.888;2023-09-12T12:57:42;2.43;;;2.33;;
5245;SDS011;54412;51.206;6.888;2023-09-12T13:00:09;2.20;;;2.10;;
5245;SDS011;54412;51.206;6.888;2023-09-12T13:02:41;4.47;;;2.70;;
5245;SDS011;54412;51.206;6.888;2023-09-12T13:05:20;6.00;;;3.10;;
5245;SDS011;54412;51.206;6.888;2023-09-12T13:07:54;2.53;;;2.33;;
5245;SDS011;54412;51.206;6.888;2023-09-12T13:10:20;2.50;;;2.40;;
5245;SDS011;54412;51.206;6.888;2023-09-12T13:12:47;3.00;;;2.80;;
5245;SDS011;54412;51.206;6.888;2023-09-12T13:15:14;3.60;;;2.60;;
5245;SDS011;54412;51.206;6.888;2023-09-12T13:17:42;3.10;;;2.50;;
5245;SDS011;54412;51.206;6.888;2023-09-12T13:20:08;2.20;;;2.10;;
5245;SDS011;54412;51.206;6.888;2023-09-12T13:22:35;6.20;;;2.20;;
5245;SDS011;54412;51.206;6.888;2023-09-12T13:25:01;3.60;;;2.43;;
5245;SDS011;54412;51.206;6.888;2023-09-12T13:27:27;4.07;;;3.30;;
5245;SDS011;54412;51.206;6.888;2023-09-12T13:29:54;3.50;;;3.20;;
5245;SDS011;54412;51.206;6.888;2023-09-12T13:32:20;3.87;;;3.20;;
5245;SDS011;54412;51.206;6.888;2023-09-12T13:34:45;3.13;;;2.77;;
5245;SDS011;54412;51.206;6.888;2023-09-12T13:37:11;2.73;;;2.60;;
5245;SDS011;54412;51.206;6.888;2023-09-12T13:39:37;4.23;;;2.70;;
5245;SDS011;54412;51.206;6.888;2023-09-12T13:42:02;3.07;;;2.87;;
5245;SDS011;54412;51.206;6.888;2023-09-12T13:44:33;3.17;;;2.97;;
5245;SDS011;54412;51.206;6.888;2023-09-12T13:46:59;2.70;;;2.60;;
5245;SDS011;54412;51.206;6.888;2023-09-12T13:49:24;3.57;;;3.23;;
5245;SDS011;54412;51.206;6.888;2023-09-12T13:51:50;4.13;;;3.57;;
5245;SDS011;54412;51.206;6.888;2023-09-12T13:54:16;6.20;;;3.60;;
5245;SDS011;54412;51.206;6.888;2023-09-12T13:56:41;3.70;;;3.40;;
5245;SDS011;54412;51.206;6.888;2023-09-12T13:59:07;3.53;;;2.90;;
5245;SDS011;54412;51.206;6.888;2023-09-12T14:01:33;3.40;;;3.10;;
5245;SDS011;54412;51.206;6.888;2023-09-12T14:03:59;6.40;;;3.10;;
5245;SDS011;54412;51.206;6.888;2023-09-12T14:06:24;3.90;;;3.47;;
5245;SDS011;54412;51.206;6.888;2023-09-12T14:08:51;8.80;;;3.53;;
5245;SDS011;54412;51.206;6.888;2023-09-12T14:11:17;7.10;;;4.23;;
5245;SDS011;54412;51.206;6.888;2023-09-12T14:13:43;3.50;;;3.20;;
5245;SDS011;54412;51.206;6.888;2023-09-12T14:16:09;3.37;;;3.17;;
5245;SDS011;54412;51.206;6.888;2023-09-12T14:18:35;3.93;;;3.53;;
5245;SDS011;54412;51.206;6.888;2023-09-12T14:21:00;3.40;;;3.10;;
5245;SDS011;54412;51.206;6.888;2023-09-12T14:23:26;3.40;;;3.10;;
5245;SDS011;54412;51.206;6.888;2023-09-12T14:25:52;4.13;;;3.60;;
5245;SDS011;54412;51.206;6.888;2023-09-12T14:28:17;5.10;;;3.10;;
5245;SDS011;54412;51.206;6.888;2023-09-12T14:30:43;3.83;;;3.50;;
5245;SDS011;54412;51.206;6.888;2023-09-12T14:33:10;6.20;;;3.20;;
5245;SDS011;54412;51.206;6.888;2023-09-12T14:35:37;4.70;;;3.87;;
5245;SDS011;54412;51.206;6.888;2023-09-12T14:38:03;4.90;;;3.73;;
5245;SDS011;54412;51.206;6.888;2023-09-12T14:40:29;3.70;;;3.40;;
5245;SDS011;54412;51.206;6.888;2023-09-12T14:42:55;4.03;;;3.63;;
5245;SDS011;54412;51.206;6.888;2023-09-12T14:45:21;3.87;;;3.57;;
5245;SDS011;54412;51.206;6.888;2023-09-12T14:47:47;4.00;;;3.70;;
5245;SDS011;54412;51.206;6.888;2023-09-12T14:50:12;3.60;;;3.37;;
5245;SDS011;54412;51.206;6.888;2023-09-12T14:52:38;4.17;;;3.87;;
5245;SDS011;54412;51.206;6.888;2023-09-12T14:55:05;5.20;;;4.20;;
5245;SDS011;54412;51.206;6.888;2023-09-12T14:57:33;4.90;;;3.90;;
5245;SDS011;54412;51.206;6.888;2023-09-12T14:59:59;7.67;;;3.43;;
5245;SDS011;54412;51.206;6.888;2023-09-12T15:02:26;5.60;;;5.00;;
5245;SDS011;54412;51.206;6.888;2023-09-12T15:04:56;5.90;;;4.50;;
5245;SDS011;54412;51.206;6.888;2023-09-12T15:07:23;4.43;;;4.13;;
5245;SDS011;54412;51.206;6.888;2023-09-12T15:09:49;7.43;;;4.10;;
5245;SDS011;54412;51.206;6.888;2023-09-12T15:12:15;4.47;;;3.70;;